Time;durP1;ratioP1;P1;durP2;ratioP2;P2;SDS_P1;SDS_P2;PMS_P1;PMS_P2;Temp;Humidity;BMP_temperature;BMP_pressure;BME280_temperature;BME280_humidity;BME280_pressure;Samples;Min_cycle;Max_cycle;Signal;HPM_P1;HPM_P2
2023/11/16 00:01:41;;;;;;;11.45;1.63;;;;;;;-146.27;75.54;31966.22;5039682;28;20064;-71
2023/11/16 00:04:07;;;;;;;10.73;1.63;;;;;;;-146.27;76.13;32047.53;5036762;28;20393;-71
2023/11/16 00:06:32;;;;;;;12.02;1.58;;;;;;;-146.27;76.42;32031.66;5027845;28;20069;-71
2023/11/16 00:08:57;;;;;;;16.05;2.63;;;;;;;-146.27;76.88;32033.66;5026599;28;20618;-70
2023/11/16 00:11:24;;;;;;;11.15;2.35;;;;;;;-146.27;75.84;31982.09;5017608;28;20123;-71
2023/11/16 00:13:50;;;;;;;8.50;2.55;;;;;;;-146.27;75.86;31918.63;5029928;28;20029;-71
2023/11/16 00:16:16;;;;;;;12.55;1.88;;;;;;;-146.27;76.13;31946.38;5028142;28;20031;-69
2023/11/16 00:18:43;;;;;;;10.38;2.17;;;;;;;-146.27;76.02;31954.31;5025106;28;20077;-71
2023/11/16 00:21:09;;;;;;;13.23;1.90;;;;;;;-146.27;75.78;31918.63;5027801;28;20516;-71
2023/11/16 00:23:34;;;;;;;12.65;1.70;;;;;;;-146.27;76.16;31934.47;5026132;28;20029;-72
2023/11/16 00:26:00;;;;;;;13.30;2.20;;;;;;;-146.27;76.87;31978.13;5029693;28;20070;-72
2023/11/16 00:28:26;;;;;;;9.48;1.60;;;;;;;-146.27;77.02;31908.69;5029005;28;20025;-70
2023/11/16 00:30:52;;;;;;;8.10;1.30;;;;;;;-146.27;76.83;31958.28;5024557;28;20469;-71
2023/11/16 00:33:18;;;;;;;5.97;1.20;;;;;;;-146.27;77.08;31898.78;5033498;28;20040;-71
2023/11/16 00:35:45;;;;;;;9.18;1.15;;;;;;;-146.27;76.68;31890.84;5033438;28;20037;-70
2023/11/16 00:38:11;;;;;;;6.38;0.85;;;;;;;-146.27;76.95;31900.75;5029750;28;20032;-72
2023/11/16 00:40:36;;;;;;;8.23;1.20;;;;;;;-146.27;77.53;31938.44;5017449;28;20032;-70
2023/11/16 00:43:02;;;;;;;6.90;1.20;;;;;;;-146.27;78.19;31944.41;5039803;28;20104;-71
2023/11/16 00:45:27;;;;;;;6.32;1.23;;;;;;;-146.27;78.32;31950.34;5026798;28;20508;-71
2023/11/16 00:47:53;;;;;;;6.40;0.95;;;;;;;-146.27;79.01;31997.94;5027653;28;20080;-71
2023/11/16 00:50:18;;;;;;;4.15;0.90;;;;;;;-146.27;80.48;32037.63;5030032;28;20026;-71
2023/11/16 00:52:47;;;;;;;4.85;0.88;;;;;;;-146.27;80.97;32085.22;5042914;28;20554;-71
2023/11/16 00:55:12;;;;;;;6.03;1.02;;;;;;;-146.27;81.22;32063.41;5049159;28;20086;-71
2023/11/16 00:57:38;;;;;;;2.67;0.57;;;;;;;-146.27;82.28;32116.97;5040587;28;20104;-71
2023/11/16 01:00:10;;;;;;;8.38;1.00;;;;;;;-146.27;83.45;32210.19;5030381;28;20040;-71
2023/11/16 01:02:36;;;;;;;4.45;0.57;;;;;;;-146.27;83.53;32186.38;5023919;28;20025;-71
2023/11/16 01:05:04;;;;;;;5.15;0.82;;;;;;;-146.27;83.84;32190.34;5033507;28;20041;-71
2023/11/16 01:07:30;;;;;;;4.65;0.63;;;;;;;-146.27;84.63;32271.69;5019908;28;20025;-71
2023/11/16 01:09:56;;;;;;;5.97;0.93;;;;;;;-146.27;84.42;32269.69;5040190;28;20033;-70
2023/11/16 01:12:25;;;;;;;4.82;0.70;;;;;;;-146.27;84.50;32234.00;5026675;28;20547;-70
2023/11/16 01:14:59;;;;;;;9.80;0.70;;;;;;;-146.27;84.18;32204.25;5029853;28;20079;-70
2023/11/16 01:17:31;;;;;;;;;;;;;;;-146.27;84.61;32293.50;5035019;28;20041;-70
2023/11/16 01:19:59;;;;;;;5.10;1.00;;;;;;;-146.27;84.74;32311.34;5031056;28;19943;-70
2023/11/16 01:22:26;;;;;;;4.53;0.80;;;;;;;-146.27;84.94;32331.19;5027415;28;20033;-69
2023/11/16 01:24:52;;;;;;;4.68;0.57;;;;;;;-146.27;84.42;32283.59;5033013;28;20017;-69
2023/11/16 01:27:25;;;;;;;10.65;0.98;;;;;;;-146.27;84.76;32269.69;5029622;28;20099;-70
2023/11/16 01:29:51;;;;;;;11.38;1.30;;;;;;;-146.27;85.37;32295.47;5025492;28;20108;-70
2023/11/16 01:32:17;;;;;;;8.40;1.05;;;;;;;-146.27;85.62;32283.59;5028098;28;20579;-71
2023/11/16 01:34:44;;;;;;;4.28;0.57;;;;;;;-146.27;85.65;32295.47;5028593;28;20060;-70
2023/11/16 01:37:11;;;;;;;4.25;0.60;;;;;;;-146.27;86.06;32277.63;5028279;28;20070;-71
2023/11/16 01:39:39;;;;;;;6.20;0.50;;;;;;;-146.27;86.03;32283.59;5028537;28;20029;-70
2023/11/16 01:42:06;;;;;;;8.15;1.20;;;;;;;-146.27;86.13;32293.50;5040001;28;20029;-70
2023/11/16 01:44:32;;;;;;;7.35;1.13;;;;;;;-146.27;86.31;32297.47;5027460;28;20143;-70
2023/11/16 01:46:58;;;;;;;5.47;0.52;;;;;;;-146.27;86.27;32301.44;5029918;28;20053;-71
2023/11/16 01:49:23;;;;;;;3.13;0.40;;;;;;;-146.27;86.16;32259.78;5024675;28;20025;-70
2023/11/16 01:51:55;;;;;;;5.55;0.57;;;;;;;-146.27;86.87;32305.41;5034359;28;20025;-71
2023/11/16 01:54:21;;;;;;;2.92;0.43;;;;;;;-146.27;86.97;32301.44;5031783;28;20429;-72
2023/11/16 01:56:47;;;;;;;9.95;0.70;;;;;;;-146.27;86.83;32313.34;5027246;28;20025;-71
2023/11/16 01:59:14;;;;;;;5.13;0.70;;;;;;;-146.27;86.59;32291.50;5027775;28;20386;-71
2023/11/16 02:01:40;;;;;;;6.32;0.80;;;;;;;-146.27;86.79;32283.59;5027392;28;20033;-70
2023/11/16 02:04:05;;;;;;;8.52;0.63;;;;;;;-146.27;86.75;32329.19;5019119;28;20062;-69
2023/11/16 02:06:31;;;;;;;4.47;0.60;;;;;;;-146.27;86.85;32305.41;5037857;28;20032;-70
2023/11/16 02:08:57;;;;;;;9.25;0.43;;;;;;;-146.27;86.72;32297.47;5032435;28;20032;-70
2023/11/16 02:11:23;;;;;;;7.82;0.70;;;;;;;-146.27;86.67;32307.38;5034732;28;20377;-70
2023/11/16 02:13:52;;;;;;;4.32;0.70;;;;;;;-146.27;86.72;32301.44;5039337;28;20044;-70
2023/11/16 02:16:19;;;;;;;8.85;0.70;;;;;;;-146.27;87.08;32315.31;5031931;28;20049;-72
2023/11/16 02:18:44;;;;;;;7.57;1.23;;;;;;;-146.27;87.18;32323.25;5027378;28;20124;-71
2023/11/16 02:21:10;;;;;;;8.05;1.00;;;;;;;-146.27;87.07;32315.31;5044443;28;20112;-71
2023/11/16 02:23:36;;;;;;;9.57;1.13;;;;;;;-146.27;87.06;32299.44;5045698;28;20481;-71
2023/11/16 02:26:02;;;;;;;3.78;0.60;;;;;;;-146.27;87.33;32303.41;5030989;28;20061;-71
2023/11/16 02:28:29;;;;;;;5.95;0.63;;;;;;;-146.27;87.81;32311.34;5032914;28;20106;-70
2023/11/16 02:30:57;;;;;;;11.07;1.67;;;;;;;-146.27;87.95;32315.31;5037206;28;20022;-68
2023/11/16 02:33:23;;;;;;;3.65;1.23;;;;;;;-146.27;88.06;32333.16;5038048;28;20073;-70
2023/11/16 02:35:52;;;;;;;1.95;0.60;;;;;;;-146.27;88.05;32337.13;5026477;28;20033;-70
2023/11/16 02:38:18;;;;;;;9.80;0.80;;;;;;;-146.27;88.05;32303.41;5032476;28;20480;-70
2023/11/16 02:40:44;;;;;;;6.93;1.05;;;;;;;-146.27;88.02;32303.41;5030019;28;20021;-71
2023/11/16 02:43:09;;;;;;;4.28;0.80;;;;;;;-146.27;88.16;32315.31;5036550;28;20660;-69
2023/11/16 02:45:35;;;;;;;4.68;1.15;;;;;;;-146.27;88.42;32335.16;5027756;28;20100;-70
2023/11/16 02:48:01;;;;;;;6.55;0.57;;;;;;;-146.27;88.39;32321.28;5020959;28;20026;-69
2023/11/16 02:50:27;;;;;;;4.03;0.80;;;;;;;-146.27;88.31;32331.19;5018989;28;20033;-71
2023/11/16 02:52:53;;;;;;;7.63;1.23;;;;;;;-146.27;88.38;32281.59;5029673;28;20030;-71
2023/11/16 02:55:29;;;;;;;9.10;0.73;;;;;;;-146.27;87.85;32291.50;5031915;28;20543;-70
2023/11/16 02:57:57;;;;;;;6.03;0.75;;;;;;;-146.27;87.60;32299.44;5020920;28;20112;-70
2023/11/16 03:00:24;;;;;;;10.50;1.00;;;;;;;-146.27;87.52;32291.50;5031460;28;20493;-70
2023/11/16 03:02:50;;;;;;;7.13;1.00;;;;;;;-146.27;87.28;32370.84;5032783;28;20025;-71
2023/11/16 03:05:17;;;;;;;10.98;0.75;;;;;;;-146.27;87.24;32325.25;5041766;28;20043;-71
2023/11/16 03:07:43;;;;;;;6.03;0.80;;;;;;;-146.27;87.26;32335.16;5041460;28;20096;-72
2023/11/16 03:10:09;;;;;;;16.63;1.45;;;;;;;-146.27;87.14;32315.31;5022624;28;20442;-71
2023/11/16 03:12:35;;;;;;;11.50;0.98;;;;;;;-146.27;86.85;32343.09;5018257;28;20022;-70
2023/11/16 03:15:01;;;;;;;5.07;0.63;;;;;;;-146.27;86.84;32319.28;5027108;28;20033;-70
2023/11/16 03:17:27;;;;;;;6.45;0.40;;;;;;;-146.27;87.00;32364.91;5030953;28;20610;-70
2023/11/16 03:19:53;;;;;;;10.63;2.20;;;;;;;-146.27;86.96;32360.94;5038242;28;20109;-70
2023/11/16 03:22:18;;;;;;;5.25;0.73;;;;;;;-146.27;86.92;32378.78;5030095;28;20022;-71
2023/11/16 03:24:44;;;;;;;7.53;0.85;;;;;;;-146.27;86.95;32382.75;5023316;28;20102;-72
2023/11/16 03:27:09;;;;;;;10.38;1.05;;;;;;;-146.27;86.92;32351.03;5030377;28;20033;-72
2023/11/16 03:29:40;;;;;;;1.10;0.40;;;;;;;-146.27;86.86;32360.94;5031309;28;20493;-71
2023/11/16 03:32:09;;;;;;;9.18;0.80;;;;;;;-146.27;86.62;32261.75;5040916;28;20028;-71
2023/11/16 03:34:35;;;;;;;5.30;0.60;;;;;;;-146.27;86.96;32390.69;5030859;28;20307;-71
2023/11/16 03:37:02;;;;;;;8.02;0.63;;;;;;;-146.27;87.09;32402.59;5038166;28;20029;-70
2023/11/16 03:39:28;;;;;;;8.98;1.00;;;;;;;-146.27;87.13;32360.94;5037784;28;20431;-70
2023/11/16 03:41:53;;;;;;;10.45;1.20;;;;;;;-146.27;87.48;32347.06;5019732;28;20141;-71
2023/11/16 03:44:19;;;;;;;6.85;0.65;;;;;;;-146.27;87.69;32396.66;5024304;28;20029;-71
2023/11/16 03:46:44;;;;;;;5.78;0.63;;;;;;;-146.27;88.04;32422.44;5028539;28;20064;-70
2023/11/16 03:49:10;;;;;;;4.68;0.63;;;;;;;-146.27;87.59;32341.09;5027309;28;20069;-70
2023/11/16 03:51:35;;;;;;;9.30;0.75;;;;;;;-146.27;87.39;32426.41;5025922;28;20061;-70
2023/11/16 03:54:00;;;;;;;8.93;3.00;;;;;;;-146.27;87.64;32404.59;5025365;28;20044;-69
2023/11/16 03:56:26;;;;;;;5.78;1.10;;;;;;;-146.27;87.20;32438.31;5026316;28;20189;-69
2023/11/16 03:58:51;;;;;;;6.32;0.85;;;;;;;-146.27;87.02;32414.50;5029206;28;20040;-70
2023/11/16 04:01:17;;;;;;;5.15;0.68;;;;;;;-146.27;87.38;32440.28;5027962;28;20029;-70
2023/11/16 04:03:43;;;;;;;12.50;0.95;;;;;;;-146.27;87.47;32438.31;5025938;28;20021;-70
2023/11/16 04:06:19;;;;;;;5.72;0.80;;;;;;;-146.27;87.64;32444.25;5030590;28;20112;-71
2023/11/16 04:08:47;;;;;;;4.03;0.90;;;;;;;-146.27;87.85;32450.22;5030321;28;20026;-70
2023/11/16 04:11:13;;;;;;;7.72;0.60;;;;;;;-146.27;87.61;32501.78;5031168;28;20029;-70
2023/11/16 04:13:38;;;;;;;5.70;0.70;;;;;;;-146.27;88.04;32483.94;5031290;28;20029;-71
2023/11/16 04:16:07;;;;;;;5.10;0.70;;;;;;;-146.27;87.92;32493.84;5027847;28;20025;-71
2023/11/16 04:18:33;;;;;;;3.75;0.85;;;;;;;-146.27;88.07;32474.00;5027409;28;20176;-70
2023/11/16 04:20:58;;;;;;;2.25;0.90;;;;;;;-146.27;88.29;32454.16;5028438;28;20625;-71
2023/11/16 04:23:25;;;;;;;4.07;0.80;;;;;;;-146.27;88.58;32501.78;5020879;28;20048;-71
2023/11/16 04:25:54;;;;;;;3.88;1.00;;;;;;;-146.27;88.66;32476.00;5026704;28;20029;-70
2023/11/16 04:28:21;;;;;;;2.83;0.75;;;;;;;-146.27;88.71;32485.91;5032118;28;20021;-71
2023/11/16 04:30:46;;;;;;;4.57;0.73;;;;;;;-146.27;89.08;32462.09;5029870;28;20039;-70
2023/11/16 04:33:12;;;;;;;5.30;0.70;;;;;;;-146.27;88.67;32450.22;5022595;28;20033;-70
2023/11/16 04:35:37;;;;;;;3.92;0.70;;;;;;;-146.27;88.75;32481.94;5030600;28;20029;-70
2023/11/16 04:38:04;;;;;;;4.05;0.95;;;;;;;-146.27;88.51;32426.41;5030323;28;20703;-71
2023/11/16 04:40:29;;;;;;;6.50;1.17;;;;;;;-146.27;88.10;32464.09;5035727;28;20074;-71
2023/11/16 04:42:54;;;;;;;6.97;0.93;;;;;;;-146.27;88.10;32470.03;5027210;28;20033;-71
2023/11/16 04:45:20;;;;;;;3.30;0.57;;;;;;;-146.27;88.37;32450.22;5024604;28;20029;-71
2023/11/16 04:47:46;;;;;;;11.68;1.10;;;;;;;-146.27;88.59;32434.34;5023653;28;20033;-70
2023/11/16 04:50:16;;;;;;;9.70;1.25;;;;;;;-146.27;88.68;32442.28;5043673;28;20473;-70
2023/11/16 04:52:46;;;;;;;3.13;0.70;;;;;;;-146.27;88.92;32450.22;5046505;28;20064;-71
2023/11/16 04:55:11;;;;;;;7.85;0.70;;;;;;;-146.27;88.72;32462.09;5024116;28;20413;-70
2023/11/16 04:57:37;;;;;;;3.80;0.63;;;;;;;-146.27;88.52;32474.00;5028011;28;20037;-71
2023/11/16 05:00:10;;;;;;;5.60;0.68;;;;;;;-146.27;88.88;32462.09;5029606;28;20058;-71
2023/11/16 05:02:35;;;;;;;4.57;0.60;;;;;;;-146.27;88.52;32474.00;5027969;28;20029;-70
2023/11/16 05:05:00;;;;;;;4.30;0.75;;;;;;;-146.27;88.45;32442.28;5028776;28;20033;-70
2023/11/16 05:07:26;;;;;;;3.17;0.68;;;;;;;-146.27;88.46;32477.97;5025149;28;20521;-70
2023/11/16 05:09:51;;;;;;;9.15;0.88;;;;;;;-146.27;88.59;32450.22;5031160;28;20504;-70
2023/11/16 05:12:17;;;;;;;7.35;1.00;;;;;;;-146.27;88.40;32464.09;5044216;28;20755;-70
2023/11/16 05:14:42;;;;;;;2.45;1.00;;;;;;;-146.27;88.76;32458.13;5027634;28;20033;-70
2023/11/16 05:17:08;;;;;;;7.90;0.65;;;;;;;-146.27;88.40;32456.16;5025430;28;20057;-70
2023/11/16 05:19:34;;;;;;;1.60;0.45;;;;;;;-146.27;88.49;32442.28;5036537;28;20499;-71
2023/11/16 05:21:59;;;;;;;8.75;1.42;;;;;;;-146.27;88.76;32477.97;5028022;28;20452;-70
2023/11/16 05:24:24;;;;;;;2.85;0.57;;;;;;;-146.27;88.38;32493.84;5029902;28;20028;-70
2023/11/16 05:26:51;;;;;;;5.20;1.08;;;;;;;-146.27;88.60;32452.19;5033273;28;20448;-71
2023/11/16 05:29:16;;;;;;;7.15;0.95;;;;;;;-146.27;88.68;32454.16;5030225;28;20064;-71
2023/11/16 05:31:42;;;;;;;4.28;0.63;;;;;;;-146.27;88.55;32462.09;5028567;28;20441;-70
2023/11/16 05:34:08;;;;;;;5.47;0.90;;;;;;;-146.27;88.46;32489.88;5033913;28;20489;-72
2023/11/16 05:36:36;;;;;;;8.93;1.35;;;;;;;-146.27;88.43;32485.91;5027589;28;20199;-70
2023/11/16 05:39:03;;;;;;;4.32;0.77;;;;;;;-146.27;88.54;32442.28;5030696;28;20571;-72
2023/11/16 05:41:29;;;;;;;7.55;1.00;;;;;;;-146.27;88.45;32509.72;5028477;28;20160;-70
2023/11/16 05:43:54;;;;;;;5.53;0.88;;;;;;;-146.27;88.29;32458.13;5033918;28;20557;-69
2023/11/16 05:46:19;;;;;;;5.50;0.80;;;;;;;-146.27;88.51;32493.84;5031129;28;20021;-71
2023/11/16 05:48:45;;;;;;;7.90;1.25;;;;;;;-146.27;88.73;32446.25;5027457;28;20029;-70
2023/11/16 05:51:11;;;;;;;10.50;1.08;;;;;;;-146.27;88.84;32436.31;5026991;28;20028;-71
2023/11/16 05:53:36;;;;;;;4.10;1.00;;;;;;;-146.27;88.86;32446.25;5043239;28;20397;-72
2023/11/16 05:56:02;;;;;;;7.78;1.25;;;;;;;-146.27;88.72;32430.38;5027263;28;20037;-72
2023/11/16 05:58:27;;;;;;;7.47;0.80;;;;;;;-146.27;88.51;32434.34;5028835;28;20025;-70
2023/11/16 06:00:52;;;;;;;7.68;1.15;;;;;;;-146.27;88.72;32462.09;5015911;28;20100;-71
2023/11/16 06:03:25;;;;;;;3.42;0.70;;;;;;;-146.27;89.18;32448.22;5019203;28;20394;-70
2023/11/16 06:05:50;;;;;;;9.05;0.85;;;;;;;-146.27;89.16;32436.31;5027645;28;20048;-71
2023/11/16 06:08:16;;;;;;;5.95;0.80;;;;;;;-146.27;88.62;32462.09;5034832;28;20511;-70
2023/11/16 06:10:42;;;;;;;8.80;1.17;;;;;;;-146.27;88.77;32446.25;5028175;28;20108;-70
2023/11/16 06:13:07;;;;;;;9.57;1.48;;;;;;;-146.27;89.04;32454.16;5016630;28;20473;-70
2023/11/16 06:15:34;;;;;;;5.90;1.08;;;;;;;-146.27;88.83;32416.47;5029768;28;20028;-71
2023/11/16 06:18:00;;;;;;;5.45;0.90;;;;;;;-146.27;88.70;32430.38;5029293;28;20053;-71
2023/11/16 06:20:28;;;;;;;5.13;1.02;;;;;;;-146.27;88.56;32438.31;5027821;28;20556;-71
2023/11/16 06:22:53;;;;;;;5.30;1.48;;;;;;;-146.27;88.57;32412.50;5027932;28;20465;-71
2023/11/16 06:25:19;;;;;;;7.15;1.27;;;;;;;-146.27;88.59;32454.16;5025665;28;20025;-71
2023/11/16 06:27:45;;;;;;;7.63;1.55;;;;;;;-146.27;88.65;32434.34;5026700;28;20485;-71
2023/11/16 06:30:14;;;;;;;5.38;1.17;;;;;;;-146.27;88.51;32462.09;5027910;28;20043;-71
2023/11/16 06:32:39;;;;;;;6.80;1.10;;;;;;;-146.27;88.60;32434.34;5026710;28;20378;-71
2023/11/16 06:35:05;;;;;;;9.73;1.35;;;;;;;-146.27;88.59;32432.34;5031205;28;20034;-70
2023/11/16 06:37:33;;;;;;;7.18;1.25;;;;;;;-146.27;88.72;32454.16;5033258;28;20469;-71
2023/11/16 06:39:59;;;;;;;6.90;1.50;;;;;;;-146.27;88.54;32450.22;5033042;28;20040;-70
2023/11/16 06:42:25;;;;;;;7.10;1.05;;;;;;;-146.27;88.64;32446.25;5026497;28;20034;-70
2023/11/16 06:44:50;;;;;;;6.75;1.13;;;;;;;-146.27;88.64;32458.13;5029764;28;20071;-71
2023/11/16 06:47:16;;;;;;;3.85;0.90;;;;;;;-146.27;88.65;32485.91;5031292;28;20035;-71
2023/11/16 06:49:42;;;;;;;9.50;1.38;;;;;;;-146.27;88.51;32483.94;5031123;28;20025;-70
2023/11/16 06:52:09;;;;;;;3.67;1.20;;;;;;;-146.27;88.80;32487.91;5040808;28;20424;-71
2023/11/16 06:54:35;;;;;;;4.82;1.20;;;;;;;-146.27;88.66;32481.94;5033369;28;20489;-72
2023/11/16 06:57:00;;;;;;;4.95;1.00;;;;;;;-146.27;88.56;32477.97;5032042;28;20022;-72
2023/11/16 06:59:26;;;;;;;6.07;1.70;;;;;;;-146.27;88.54;32460.13;5041091;28;20440;-72
2023/11/16 07:01:52;;;;;;;5.78;1.42;;;;;;;-146.27;88.63;32485.91;5027820;28;20034;-72
2023/11/16 07:04:18;;;;;;;6.88;1.35;;;;;;;-146.27;88.71;32477.97;5033702;28;20100;-71
2023/11/16 07:06:44;;;;;;;6.85;1.42;;;;;;;-146.27;88.60;32476.00;5023845;28;20029;-72
2023/11/16 07:09:11;;;;;;;4.30;1.10;;;;;;;-146.27;88.40;32476.00;5028253;28;20033;-72
2023/11/16 07:11:38;;;;;;;4.43;1.17;;;;;;;-146.27;88.68;32450.22;5031210;28;20045;-72
2023/11/16 07:14:04;;;;;;;5.97;1.23;;;;;;;-146.27;88.75;32476.00;5030980;28;20033;-72
2023/11/16 07:16:30;;;;;;;10.02;1.48;;;;;;;-146.27;88.53;32485.91;5032261;28;20063;-72
2023/11/16 07:18:57;;;;;;;5.22;1.20;;;;;;;-146.27;88.72;32452.19;5028732;28;20107;-72
2023/11/16 07:21:23;;;;;;;8.15;1.50;;;;;;;-146.27;88.59;32410.53;5033985;28;20115;-72
2023/11/16 07:23:48;;;;;;;6.10;1.27;;;;;;;-146.27;88.55;32442.28;5031171;28;20155;-72
2023/11/16 07:26:18;;;;;;;6.38;1.55;;;;;;;-146.27;88.32;32462.09;5030596;28;20025;-69
2023/11/16 07:28:44;;;;;;;8.50;1.77;;;;;;;-146.27;88.15;32460.13;5027396;28;20032;-70
2023/11/16 07:31:09;;;;;;;8.68;1.80;;;;;;;-146.27;87.98;32472.03;5031756;28;20021;-70
2023/11/16 07:33:34;;;;;;;13.38;1.85;;;;;;;-146.27;88.15;32432.34;5043827;28;20029;-71
2023/11/16 07:36:03;;;;;;;8.15;1.83;;;;;;;-146.27;88.13;32479.97;5047405;28;20084;-71
2023/11/16 07:38:31;;;;;;;9.18;2.42;;;;;;;-146.27;88.16;32472.03;5032462;28;20100;-71
2023/11/16 07:40:57;;;;;;;7.13;2.80;;;;;;;-146.27;88.27;32436.31;5039104;28;20523;-70
2023/11/16 07:43:25;;;;;;;9.77;2.97;;;;;;;-146.27;87.92;32442.28;5047933;28;20159;-71
2023/11/16 07:45:52;;;;;;;7.25;2.47;;;;;;;-146.27;87.80;32418.47;5032316;28;20032;-71
2023/11/16 07:48:19;;;;;;;10.98;3.13;;;;;;;-146.27;87.69;32392.69;5031662;28;20477;-71
2023/11/16 07:50:44;;;;;;;13.13;2.92;;;;;;;-146.27;87.86;32418.47;5030555;28;20485;-71
2023/11/16 07:53:10;;;;;;;12.75;3.05;;;;;;;-146.27;87.97;32410.53;5033665;28;20070;-69
2023/11/16 07:55:37;;;;;;;8.68;2.88;;;;;;;-146.27;88.10;32400.63;5032628;28;20481;-70
2023/11/16 07:58:05;;;;;;;12.55;3.65;;;;;;;-146.27;88.10;32450.22;5031516;28;20489;-71
2023/11/16 08:00:31;;;;;;;7.00;3.20;;;;;;;-146.27;88.16;32434.34;5031175;28;20489;-70
2023/11/16 08:05:46;;;;;;;9.27;3.80;;;;;;;-146.27;88.04;32386.72;5033533;28;20067;-69
2023/11/16 08:08:14;;;;;;;10.48;4.68;;;;;;;-146.27;87.81;32426.41;5032169;28;20574;-70
2023/11/16 08:10:43;;;;;;;12.40;4.82;;;;;;;-146.27;87.86;32454.16;5047775;28;20423;-69
2023/11/16 08:13:12;;;;;;;14.85;6.00;;;;;;;-146.27;87.94;32436.31;5049833;28;20071;-69
2023/11/16 08:15:41;;;;;;;15.63;5.82;;;;;;;-146.27;87.86;32410.53;5030499;28;20370;-70
2023/11/16 08:18:11;;;;;;;13.10;5.28;;;;;;;-146.27;87.97;32398.63;5034102;28;20072;-69
2023/11/16 08:20:37;;;;;;;11.48;5.55;;;;;;;-146.27;87.83;32364.91;5049982;28;20035;-70
2023/11/16 08:23:05;;;;;;;24.48;6.25;;;;;;;-146.27;87.85;32422.44;5051500;28;20021;-69
2023/11/16 08:25:31;;;;;;;11.82;4.95;;;;;;;-146.27;87.94;32410.53;5051473;28;20028;-69
2023/11/16 08:27:57;;;;;;;12.55;5.68;;;;;;;-146.27;87.94;32444.25;5033020;28;20017;-69
2023/11/16 08:30:23;;;;;;;13.48;5.20;;;;;;;-146.27;87.73;32374.81;5039608;28;20021;-70
2023/11/16 08:32:49;;;;;;;10.45;4.97;;;;;;;-146.27;87.65;32345.06;5042862;28;20022;-68
2023/11/16 08:35:14;;;;;;;18.77;5.00;;;;;;;-146.27;87.71;32347.06;5031217;28;20093;-69
2023/11/16 08:37:41;;;;;;;9.40;4.63;;;;;;;-146.27;87.82;32406.56;5030552;28;20160;-68
2023/11/16 08:40:08;;;;;;;19.27;5.32;;;;;;;-146.27;87.89;32370.84;5030369;28;20036;-69
2023/11/16 08:42:41;;;;;;;11.20;4.45;;;;;;;-146.27;88.16;32347.06;5047934;28;20441;-68
2023/11/16 08:45:08;;;;;;;17.33;5.13;;;;;;;-146.27;87.95;32347.06;5031169;28;20637;-69
2023/11/16 08:47:34;;;;;;;15.27;5.65;;;;;;;-146.27;87.57;32343.09;5036272;28;20071;-69
2023/11/16 08:49:59;;;;;;;15.82;4.63;;;;;;;-146.27;87.58;32341.09;5039658;28;20021;-69
2023/11/16 08:52:24;;;;;;;14.50;4.68;;;;;;;-146.27;87.59;32345.06;5043267;28;20124;-69
2023/11/16 08:54:50;;;;;;;12.35;4.88;;;;;;;-146.27;87.53;32317.31;5033147;28;20029;-69
2023/11/16 08:57:17;;;;;;;14.30;5.60;;;;;;;-146.27;87.70;32319.28;5040090;28;20443;-69
2023/11/16 08:59:59;;;;;;;12.43;5.22;;;;;;;-146.27;87.51;32291.50;5030032;28;20072;-69
2023/11/16 09:02:25;;;;;;;14.27;5.38;;;;;;;-146.27;87.38;32339.13;5030855;28;20524;-70
2023/11/16 09:04:50;;;;;;;13.52;4.57;;;;;;;-146.27;87.43;32339.13;5033269;28;20033;-69
2023/11/16 09:07:16;;;;;;;12.48;5.03;;;;;;;-146.27;87.54;32331.19;5030017;28;20660;-69
2023/11/16 09:09:45;;;;;;;12.63;5.43;;;;;;;-146.27;87.49;32285.56;5034620;28;20029;-69
2023/11/16 09:12:12;;;;;;;17.50;6.13;;;;;;;-146.27;87.49;32307.38;5044385;28;20029;-70
2023/11/16 09:14:40;;;;;;;8.68;5.43;;;;;;;-146.27;87.41;32255.81;5035015;28;20469;-69
2023/11/16 09:17:16;;;;;;;12.88;5.53;;;;;;;-146.27;87.38;32315.31;5031680;28;20528;-69
2023/11/16 09:19:42;;;;;;;12.75;5.15;;;;;;;-146.27;87.34;32301.44;5029488;28;20033;-69
2023/11/16 09:22:09;;;;;;;12.73;5.47;;;;;;;-146.27;87.24;32289.53;5037964;28;20021;-70
2023/11/16 09:24:36;;;;;;;12.93;5.15;;;;;;;-146.27;86.88;32259.78;5031928;28;20038;-70
2023/11/16 09:27:04;;;;;;;11.07;5.30;;;;;;;-146.27;86.56;32281.59;5028734;28;20041;-68
2023/11/16 09:29:30;;;;;;;15.85;5.93;;;;;;;-146.27;86.40;32299.44;5034902;28;20033;-68
2023/11/16 09:31:56;;;;;;;12.07;4.90;;;;;;;-146.27;86.32;32283.59;5040280;28;20501;-68
2023/11/16 09:34:22;;;;;;;16.17;6.80;;;;;;;-146.27;86.33;32267.72;5042246;28;20099;-69
2023/11/16 09:36:50;;;;;;;15.73;6.18;;;;;;;-146.27;86.37;32331.19;5039579;28;20025;-69
2023/11/16 09:39:16;;;;;;;17.20;6.03;;;;;;;-146.27;86.34;32329.19;5036535;28;20029;-69
2023/11/16 09:41:49;;;;;;;17.92;6.45;;;;;;;-146.27;86.36;32333.16;5043498;28;20025;-69
2023/11/16 09:44:17;;;;;;;22.35;6.38;;;;;;;-146.27;86.71;32339.13;5031477;28;20719;-68
2023/11/16 09:46:46;;;;;;;15.65;7.05;;;;;;;-146.27;86.68;32339.13;5030882;28;20075;-69
2023/11/16 09:49:18;;;;;;;15.73;6.18;;;;;;;-146.27;86.63;32309.38;5041561;28;20108;-69
2023/11/16 09:51:45;;;;;;;21.05;7.90;;;;;;;-146.27;86.70;32345.06;5045549;28;20108;-71
2023/11/16 09:54:14;;;;;;;22.15;8.20;;;;;;;-146.27;86.60;32378.78;5026234;28;20117;-71
2023/11/16 09:56:43;;;;;;;16.05;7.65;;;;;;;-146.27;86.74;32301.44;5028934;28;20025;-69
2023/11/16 09:59:14;;;;;;;21.17;8.23;;;;;;;-146.27;86.53;32291.50;5031271;28;20513;-71
2023/11/16 10:01:42;;;;;;;14.65;8.63;;;;;;;-146.27;86.50;32339.13;5027787;28;20044;-70
2023/11/16 10:04:11;;;;;;;18.80;8.20;;;;;;;-146.27;86.54;32315.31;5029586;28;20060;-69
2023/11/16 10:06:37;;;;;;;17.70;9.00;;;;;;;-146.27;86.32;32301.44;5020328;28;20051;-69
2023/11/16 10:09:14;;;;;;;15.25;8.60;;;;;;;-146.27;86.17;32347.06;5039338;28;20548;-69
2023/11/16 10:11:40;;;;;;;25.08;10.40;;;;;;;-146.27;86.13;32263.75;5035156;28;20053;-70
2023/11/16 10:14:05;;;;;;;15.52;9.10;;;;;;;-146.27;85.94;32366.91;5036932;28;20036;-70
2023/11/16 10:16:31;;;;;;;23.27;10.90;;;;;;;-146.27;85.91;32347.06;5041936;28;20030;-70
2023/11/16 10:19:06;;;;;;;22.75;11.32;;;;;;;-146.27;85.75;32394.66;5039711;28;20128;-70
2023/11/16 10:21:34;;;;;;;23.25;11.07;;;;;;;-146.27;85.95;32356.97;5043187;28;20440;-69
2023/11/16 10:24:08;;;;;;;28.67;12.63;;;;;;;-146.27;85.86;32406.56;5044966;28;20029;-70
2023/11/16 10:26:34;;;;;;;23.50;12.15;;;;;;;-146.27;86.05;32374.81;5039721;28;20075;-69
2023/11/16 10:29:01;;;;;;;18.35;11.18;;;;;;;-146.27;86.01;32366.91;5042194;28;20029;-69
2023/11/16 10:31:31;;;;;;;23.58;12.50;;;;;;;-146.27;86.23;32400.63;5035222;28;20048;-69
2023/11/16 10:33:58;;;;;;;27.60;11.48;;;;;;;-146.27;86.03;32327.22;5035176;28;20032;-70
2023/11/16 10:36:26;;;;;;;26.85;12.52;;;;;;;-146.27;85.80;32390.69;5039797;28;20029;-71
2023/11/16 10:38:52;;;;;;;23.77;11.98;;;;;;;-146.27;85.53;32335.16;5041843;28;20492;-68
2023/11/16 10:41:19;;;;;;;22.23;11.23;;;;;;;-146.27;85.32;32327.22;5033772;28;20021;-70
2023/11/16 10:43:46;;;;;;;23.75;12.18;;;;;;;-146.27;85.41;32390.69;5035060;28;20042;-69
2023/11/16 10:46:12;;;;;;;21.40;11.73;;;;;;;-146.27;85.34;32370.84;5033742;28;20424;-70
2023/11/16 10:48:38;;;;;;;19.58;10.55;;;;;;;-146.27;85.21;32349.03;5027585;28;20036;-72
2023/11/16 10:51:06;;;;;;;22.15;11.30;;;;;;;-146.27;85.34;32307.38;5033810;28;20030;-70
2023/11/16 10:53:37;;;;;;;22.17;10.95;;;;;;;-146.27;85.15;32360.94;5031912;28;20040;-69
2023/11/16 10:56:07;;;;;;;22.95;10.80;;;;;;;-146.27;85.08;32374.81;5031548;28;20024;-71
2023/11/16 10:58:34;;;;;;;19.85;9.95;;;;;;;-146.27;85.14;32386.72;5029356;28;20465;-71
2023/11/16 11:01:02;;;;;;;24.20;10.75;;;;;;;-146.27;85.15;32329.19;5046930;28;20033;-70
2023/11/16 11:03:27;;;;;;;23.20;10.27;;;;;;;-146.27;85.44;32323.25;5032739;28;20033;-69
2023/11/16 11:05:52;;;;;;;19.73;10.85;;;;;;;-146.27;85.55;32339.13;5030753;28;20056;-69
2023/11/16 11:08:19;;;;;;;19.70;10.30;;;;;;;-146.27;85.82;32343.09;5039425;28;20485;-70
2023/11/16 11:10:47;;;;;;;17.25;10.02;;;;;;;-146.27;85.53;32366.91;5036592;28;20017;-69
2023/11/16 11:13:14;;;;;;;19.77;10.07;;;;;;;-146.27;85.17;32353.00;5033235;28;20040;-71
2023/11/16 11:15:40;;;;;;;15.65;9.27;;;;;;;-146.27;85.16;32347.06;5045604;28;20493;-69